createdAt,value
2019-02-17T00:01:51.693Z,27.10
2019-02-17T00:04:28.575Z,26.90
2019-02-17T00:07:05.686Z,27.10
2019-02-17T00:09:42.717Z,27.50
2019-02-17T00:14:54.202Z,27.50
2019-02-17T00:17:31.488Z,27.50
2019-02-17T00:20:08.504Z,27.60
2019-02-17T00:22:45.454Z,27.60
2019-02-17T00:25:22.663Z,27.60
2019-02-17T00:27:59.608Z,27.60
2019-02-17T00:30:36.969Z,27.60
2019-02-17T00:33:13.869Z,27.60
2019-02-17T00:35:50.928Z,27.70
2019-02-17T00:38:28.046Z,27.70
2019-02-17T00:41:04.981Z,27.80
2019-02-17T00:43:41.913Z,27.80
2019-02-17T00:46:19.451Z,27.90
2019-02-17T00:48:56.838Z,27.80
2019-02-17T00:51:33.709Z,27.90
2019-02-17T00:54:10.780Z,28.10
2019-02-17T00:57:35.407Z,28.00
2019-02-17T01:00:59.871Z,28.10
2019-02-17T01:03:37.167Z,27.10
2019-02-17T01:08:49.392Z,28.20
2019-02-17T01:14:02.212Z,28.30
2019-02-17T01:16:39.327Z,28.40
2019-02-17T01:19:16.513Z,28.50
2019-02-17T01:21:53.455Z,28.60
2019-02-17T01:24:31.215Z,28.50
2019-02-17T01:27:08.462Z,28.50
2019-02-17T01:29:45.748Z,28.60
2019-02-17T01:32:23.168Z,28.50
2019-02-17T01:35:00.330Z,28.50
2019-02-17T01:37:37.320Z,28.70
2019-02-17T01:40:16.411Z,28.80
2019-02-17T01:42:53.723Z,28.90
2019-02-17T01:45:31.363Z,28.90
2019-02-17T01:48:08.533Z,28.80
2019-02-17T01:50:45.526Z,28.80
2019-02-17T01:53:22.581Z,28.80
2019-02-17T01:56:00.424Z,28.80
2019-02-17T01:58:37.466Z,29.40
2019-02-17T02:01:17.003Z,28.90
2019-02-17T02:03:53.150Z,28.90
2019-02-17T02:06:30.248Z,28.90
2019-02-17T02:09:08.233Z,28.70
2019-02-17T02:11:45.623Z,28.80
2019-02-17T02:14:22.837Z,28.90
2019-02-17T02:17:02.052Z,28.80
2019-02-17T02:19:39.015Z,28.00
2019-02-17T02:22:16.418Z,29.00
2019-02-17T02:24:53.423Z,28.90
2019-02-17T02:27:31.670Z,29.10
2019-02-17T02:30:08.981Z,29.10
2019-02-17T02:32:46.406Z,29.10
2019-02-17T02:35:23.372Z,29.10
2019-02-17T02:38:00.440Z,29.00
2019-02-17T02:40:37.898Z,29.10
2019-02-17T02:43:15.025Z,29.10
2019-02-17T02:45:52.105Z,29.20
2019-02-17T02:48:29.522Z,29.20
2019-02-17T02:51:06.520Z,29.40
2019-02-17T02:53:43.663Z,29.50
2019-02-17T02:56:20.762Z,29.20
2019-02-17T02:59:00.366Z,29.60
2019-02-17T03:04:12.273Z,27.20
2019-02-17T03:07:03.631Z,29.90
2019-02-17T03:09:40.887Z,29.80
2019-02-17T03:14:53.019Z,29.70
2019-02-17T03:17:30.030Z,29.70
2019-02-17T03:20:07.025Z,29.70
2019-02-17T03:22:43.991Z,29.60
2019-02-17T03:25:21.811Z,30.30
2019-02-17T03:27:58.847Z,29.60
2019-02-17T03:33:11.293Z,30.20
2019-02-17T03:35:48.469Z,30.20
2019-02-17T03:38:25.429Z,30.00
2019-02-17T03:41:03.038Z,30.60
2019-02-17T03:43:40.446Z,30.90
2019-02-17T03:46:17.549Z,30.30
2019-02-17T03:48:54.544Z,30.40
2019-02-17T03:51:31.555Z,30.30
2019-02-17T03:54:08.877Z,30.20
2019-02-17T03:56:46.260Z,30.30
2019-02-17T03:59:23.189Z,30.30
2019-02-17T04:02:00.644Z,30.50
2019-02-17T04:04:37.642Z,30.50
2019-02-17T04:07:14.892Z,30.50
2019-02-17T04:09:51.879Z,30.30
2019-02-17T04:12:29.456Z,30.40
2019-02-17T04:17:43.156Z,31.00
2019-02-17T04:20:20.356Z,30.60
2019-02-17T04:22:57.448Z,31.50
2019-02-17T04:25:34.425Z,30.70
2019-02-17T04:28:11.441Z,30.60
2019-02-17T04:30:48.575Z,30.80
2019-02-17T04:33:26.527Z,30.60
2019-02-17T04:36:03.613Z,30.60
2019-02-17T04:38:40.848Z,30.60
2019-02-17T04:41:19.092Z,30.60
2019-02-17T04:43:56.830Z,30.70
2019-02-17T04:46:34.030Z,30.90
2019-02-17T04:49:11.701Z,30.40
2019-02-17T04:51:48.916Z,30.60
2019-02-17T04:54:26.192Z,30.70
2019-02-17T04:57:03.159Z,30.90
2019-02-17T04:59:40.545Z,30.90
2019-02-17T05:02:17.617Z,30.90
2019-02-17T05:04:55.902Z,30.90
2019-02-17T05:07:34.676Z,30.90
2019-02-17T05:10:12.012Z,31.00
2019-02-17T05:12:49.049Z,31.00
2019-02-17T05:15:26.197Z,31.00
2019-02-17T05:18:03.472Z,31.00
2019-02-17T05:20:40.471Z,30.90
2019-02-17T05:23:17.510Z,30.80
2019-02-17T05:28:29.200Z,30.20
2019-02-17T05:31:06.326Z,30.30
2019-02-17T05:33:43.331Z,30.30
2019-02-17T05:36:20.302Z,30.40
2019-02-17T05:38:57.398Z,30.30
2019-02-17T05:41:34.743Z,30.40
2019-02-17T05:44:11.779Z,30.60
2019-02-17T05:46:49.072Z,30.60
2019-02-17T05:49:26.039Z,30.70
2019-02-17T05:52:03.135Z,30.60
2019-02-17T05:54:42.042Z,30.80
2019-02-17T05:57:19.198Z,31.00
2019-02-17T06:02:30.854Z,30.70
2019-02-17T06:05:07.950Z,30.00
2019-02-17T06:07:44.875Z,30.60
2019-02-17T06:10:21.869Z,30.40
2019-02-17T06:12:59.628Z,30.20
2019-02-17T06:15:39.596Z,30.50
2019-02-17T06:18:16.939Z,30.50
2019-02-17T06:20:53.985Z,30.60
2019-02-17T06:26:06.060Z,30.50
2019-02-17T06:28:43.161Z,30.20
2019-02-17T06:31:20.652Z,30.60
2019-02-17T06:33:57.576Z,30.50
2019-02-17T06:36:34.749Z,30.20
2019-02-17T06:41:46.765Z,30.30
2019-02-17T06:44:23.784Z,30.60
2019-02-17T06:47:03.210Z,30.30
2019-02-17T06:49:42.036Z,30.40
2019-02-17T06:52:19.027Z,30.30
2019-02-17T06:55:13.362Z,30.30
2019-02-17T06:57:50.896Z,31.10
2019-02-17T07:00:32.508Z,29.90
2019-02-17T07:03:09.520Z,30.20
2019-02-17T07:08:51.072Z,30.10
2019-02-17T07:11:28.019Z,30.30
2019-02-17T07:14:05.098Z,30.10
2019-02-17T07:16:42.124Z,30.10
2019-02-17T07:19:19.074Z,29.90
2019-02-17T07:21:55.999Z,29.80
2019-02-17T07:24:32.927Z,29.60
2019-02-17T07:27:11.609Z,29.10
2019-02-17T07:29:48.619Z,29.60
2019-02-17T07:32:25.634Z,26.90
2019-02-17T07:35:02.628Z,29.00
2019-02-17T07:37:39.939Z,29.30
2019-02-17T07:40:18.475Z,29.30
2019-02-17T07:42:55.547Z,29.10
2019-02-17T07:45:32.660Z,29.60
2019-02-17T07:50:44.351Z,29.30
2019-02-17T07:53:21.436Z,29.20
2019-02-17T07:55:58.462Z,29.60
2019-02-17T07:58:35.833Z,29.00
2019-02-17T08:01:12.967Z,29.00
2019-02-17T08:06:24.684Z,27.90
2019-02-17T08:09:02.072Z,27.70
2019-02-17T08:11:39.153Z,27.80
2019-02-17T08:14:16.516Z,27.70
2019-02-17T08:16:53.588Z,27.70
2019-02-17T08:19:30.980Z,27.70
2019-02-17T08:22:08.121Z,27.50
2019-02-17T08:24:45.290Z,27.50
2019-02-17T08:27:26.284Z,27.40
2019-02-17T08:30:03.822Z,26.90
2019-02-17T08:32:41.098Z,26.90
2019-02-17T08:35:21.155Z,26.60
2019-02-17T08:40:34.741Z,26.50
2019-02-17T08:43:12.009Z,26.20
2019-02-17T08:45:49.190Z,26.30
2019-02-17T08:48:27.282Z,26.40
2019-02-17T08:51:04.645Z,26.30
2019-02-17T08:53:42.361Z,26.30
2019-02-17T08:56:19.783Z,26.60
2019-02-17T08:58:56.818Z,27.90
2019-02-17T09:01:40.491Z,26.30
2019-02-17T09:04:18.048Z,26.30
2019-02-17T09:13:18.706Z,25.90
2019-02-17T09:15:56.557Z,25.90
2019-02-17T09:18:35.061Z,25.90
2019-02-17T09:21:13.703Z,25.90
2019-02-17T09:23:52.920Z,25.90
2019-02-17T09:26:33.006Z,26.30
2019-02-17T09:29:11.217Z,26.00
2019-02-17T09:31:49.913Z,25.50
2019-02-17T09:34:29.912Z,25.80
2019-02-17T09:37:07.752Z,26.00
2019-02-17T09:39:48.161Z,25.80
2019-02-17T09:42:26.719Z,25.70
2019-02-17T09:45:06.479Z,25.70
2019-02-17T09:50:25.026Z,25.90
2019-02-17T09:53:02.307Z,25.60
2019-02-17T09:55:40.674Z,25.70
2019-02-17T09:58:20.247Z,25.60
2019-02-17T10:03:37.473Z,25.60
2019-02-17T10:06:15.091Z,25.90
2019-02-17T10:08:54.746Z,25.80
2019-02-17T10:11:32.367Z,25.60
2019-02-17T10:14:10.930Z,25.40
2019-02-17T10:16:55.884Z,25.60
2019-02-17T10:22:09.542Z,25.30
2019-02-17T10:24:47.174Z,25.60
2019-02-17T10:27:24.696Z,25.50
2019-02-17T10:30:02.340Z,25.60
2019-02-17T10:35:18.482Z,25.50
2019-02-17T10:43:05.867Z,25.60
2019-02-17T10:45:43.816Z,25.30
2019-02-17T10:50:55.889Z,25.40
2019-02-17T10:56:09.321Z,25.20
2019-02-17T11:01:21.431Z,25.20
2019-02-17T11:04:23.788Z,25.70
2019-02-17T11:07:01.816Z,25.10
2019-02-17T11:09:38.817Z,24.90
2019-02-17T11:20:00.536Z,24.90
2019-02-17T11:22:37.572Z,25.20
2019-02-17T11:27:49.230Z,25.60
2019-02-17T11:30:26.275Z,25.10
2019-02-17T11:35:38.385Z,25.30
2019-02-17T11:40:50.610Z,25.00
2019-02-17T11:43:28.011Z,25.00
2019-02-17T11:46:05.194Z,25.40
2019-02-17T11:48:42.341Z,24.80
2019-02-17T11:51:19.402Z,24.90
2019-02-17T11:53:56.592Z,25.40
2019-02-17T11:56:33.514Z,25.20
2019-02-17T11:59:10.646Z,25.20
2019-02-17T12:01:47.673Z,25.20
2019-02-17T12:07:00.340Z,24.90
2019-02-17T12:09:38.127Z,25.10
2019-02-17T12:12:15.006Z,25.20
2019-02-17T12:17:26.400Z,25.30
2019-02-17T12:20:21.459Z,25.00
2019-02-17T12:23:03.661Z,24.90
2019-02-17T12:25:50.107Z,25.10
2019-02-17T12:28:37.873Z,25.20
2019-02-17T12:31:17.422Z,25.10
2019-02-17T12:33:54.828Z,24.90
2019-02-17T12:36:31.945Z,25.20
2019-02-17T12:39:10.353Z,25.00
2019-02-17T12:41:47.611Z,24.90
2019-02-17T12:44:24.575Z,25.20
2019-02-17T12:47:01.558Z,25.00
2019-02-17T12:52:13.188Z,24.80
2019-02-17T12:54:50.865Z,24.90
2019-02-17T13:02:37.243Z,24.60
2019-02-17T13:05:15.428Z,25.10
2019-02-17T13:07:52.418Z,24.90
2019-02-17T13:10:29.437Z,24.80
2019-02-17T13:15:42.812Z,25.10
2019-02-17T13:18:19.942Z,25.30
2019-02-17T13:20:58.296Z,25.10
2019-02-17T13:23:35.389Z,24.90
2019-02-17T13:26:12.815Z,24.90
2019-02-17T13:31:25.010Z,25.40
2019-02-17T13:44:21.152Z,24.80
2019-02-17T13:46:58.333Z,24.90
2019-02-17T13:49:35.599Z,25.00
2019-02-17T13:52:12.769Z,25.30
2019-02-17T13:54:49.790Z,25.60
2019-02-17T13:57:27.106Z,24.80
2019-02-17T14:00:05.326Z,24.90
2019-02-17T14:02:42.568Z,24.90
2019-02-17T14:05:20.026Z,25.10
2019-02-17T14:07:57.175Z,25.10
2019-02-17T14:10:34.113Z,24.50
2019-02-17T14:13:13.555Z,24.90
2019-02-17T14:15:50.779Z,24.50
2019-02-17T14:21:02.634Z,25.30
2019-02-17T14:26:14.446Z,24.60
2019-02-17T14:28:51.499Z,24.40
2019-02-17T14:34:03.228Z,24.40
2019-02-17T14:36:40.280Z,25.20
2019-02-17T14:39:18.726Z,25.00
2019-02-17T14:44:30.220Z,25.10
2019-02-17T14:47:07.294Z,24.40
2019-02-17T14:49:44.704Z,24.10
2019-02-17T14:52:21.712Z,24.50
2019-02-17T14:54:59.160Z,24.10
2019-02-17T14:57:36.134Z,24.60
2019-02-17T15:00:14.681Z,24.10
2019-02-17T15:02:51.786Z,24.10
2019-02-17T15:05:28.806Z,24.70
2019-02-17T15:08:05.778Z,24.30
2019-02-17T15:10:45.991Z,23.60
2019-02-17T15:13:24.663Z,24.20
2019-02-17T15:16:01.349Z,24.30
2019-02-17T15:18:38.376Z,24.20
2019-02-17T15:21:15.369Z,24.40
2019-02-17T15:23:52.347Z,23.90
2019-02-17T15:29:03.861Z,24.00
2019-02-17T15:31:40.982Z,24.80
2019-02-17T15:34:18.938Z,24.20
2019-02-17T15:36:56.141Z,24.80
2019-02-17T15:39:33.290Z,24.50
2019-02-17T15:44:45.055Z,24.30
2019-02-17T15:47:22.143Z,24.40
2019-02-17T15:49:59.152Z,23.90
2019-02-17T15:52:36.128Z,24.10
2019-02-17T15:55:14.919Z,23.70
2019-02-17T15:57:52.043Z,24.00
2019-02-17T16:00:29.005Z,23.70
2019-02-17T16:03:06.383Z,25.00
2019-02-17T16:08:20.069Z,23.90
2019-02-17T16:10:57.124Z,24.00
2019-02-17T16:13:34.146Z,23.80
2019-02-17T16:16:11.114Z,23.80
2019-02-17T16:18:48.475Z,23.80
2019-02-17T16:21:25.622Z,23.80
2019-02-17T16:29:12.335Z,24.30
2019-02-17T16:31:49.540Z,24.00
2019-02-17T16:34:27.133Z,23.70
2019-02-17T16:37:04.089Z,23.80
2019-02-17T16:42:16.439Z,23.60
2019-02-17T16:47:28.175Z,24.10
2019-02-17T16:50:05.459Z,24.00
2019-02-17T16:52:42.482Z,23.70
2019-02-17T16:55:19.779Z,24.00
2019-02-17T16:57:56.699Z,23.60
2019-02-17T17:00:33.685Z,23.70
2019-02-17T17:05:45.734Z,23.90
2019-02-17T17:08:24.656Z,23.80
2019-02-17T17:13:36.108Z,23.50
2019-02-17T17:16:17.233Z,23.60
2019-02-17T17:18:54.154Z,24.10
2019-02-17T17:21:32.574Z,23.70
2019-02-17T17:24:10.047Z,23.90
2019-02-17T17:26:47.402Z,24.20
2019-02-17T17:29:24.335Z,23.70
2019-02-17T17:32:01.435Z,23.70
2019-02-17T17:34:38.425Z,23.70
2019-02-17T17:37:16.009Z,24.00
2019-02-17T17:39:53.088Z,24.60
2019-02-17T17:42:31.472Z,24.00
2019-02-17T17:45:08.522Z,23.90
2019-02-17T17:47:45.998Z,23.50
2019-02-17T17:50:23.144Z,23.90
2019-02-17T17:53:00.498Z,23.80
2019-02-17T17:55:37.503Z,23.40
2019-02-17T17:58:14.664Z,23.30
2019-02-17T18:07:24.440Z,24.30
2019-02-17T18:10:01.365Z,23.50
2019-02-17T18:12:38.305Z,23.10
2019-02-17T18:15:16.608Z,23.50
2019-02-17T18:17:54.842Z,23.90
2019-02-17T18:20:31.830Z,24.10
2019-02-17T18:23:08.769Z,23.30
2019-02-17T18:25:45.728Z,23.20
2019-02-17T18:28:23.358Z,23.20
2019-02-17T18:31:00.399Z,23.40
2019-02-17T18:33:38.615Z,22.60
2019-02-17T18:36:15.597Z,23.40
2019-02-17T18:38:52.627Z,23.30
2019-02-17T18:41:29.625Z,22.90
2019-02-17T18:44:07.469Z,22.80
2019-02-17T18:49:18.923Z,23.00
2019-02-17T18:57:08.165Z,23.10
2019-02-17T18:59:43.795Z,23.30
2019-02-17T19:02:20.970Z,22.80
2019-02-17T19:04:57.886Z,23.10
2019-02-17T19:07:34.882Z,23.20
2019-02-17T19:10:13.027Z,23.10
2019-02-17T19:12:51.532Z,23.20
2019-02-17T19:18:03.014Z,22.90
2019-02-17T19:23:14.621Z,22.80
2019-02-17T19:31:01.228Z,22.40
2019-02-17T19:33:38.426Z,21.00
2019-02-17T19:41:24.375Z,22.90
2019-02-17T19:44:04.513Z,23.00
2019-02-17T19:46:41.663Z,23.00
2019-02-17T19:49:18.726Z,23.10
2019-02-17T19:51:56.219Z,23.20
2019-02-17T19:57:07.890Z,24.00
2019-02-17T19:59:46.324Z,22.90
2019-02-17T20:02:26.645Z,23.50
2019-02-17T20:10:24.950Z,23.00
2019-02-17T20:13:03.089Z,23.10
2019-02-17T20:15:39.961Z,23.30
2019-02-17T20:26:01.007Z,23.50
2019-02-17T20:31:13.649Z,23.10
2019-02-17T20:33:50.610Z,23.60
2019-02-17T20:39:02.223Z,23.20
2019-02-17T20:41:39.274Z,23.30
2019-02-17T20:44:16.210Z,23.40
2019-02-17T20:46:53.551Z,23.40
2019-02-17T20:52:05.609Z,23.60
2019-02-17T21:02:27.722Z,24.20
2019-02-17T21:07:39.466Z,23.60
2019-02-17T21:12:51.265Z,24.10
2019-02-17T21:15:28.430Z,24.20
2019-02-17T21:18:06.792Z,24.30
2019-02-17T21:20:43.874Z,24.00
2019-02-17T21:23:21.282Z,24.20
2019-02-17T21:25:59.118Z,24.00
2019-02-17T21:31:10.675Z,23.40
2019-02-17T21:33:47.607Z,24.60
2019-02-17T21:36:24.739Z,24.40
2019-02-17T21:39:01.578Z,24.50
2019-02-17T21:41:38.880Z,24.40
2019-02-17T21:44:16.719Z,24.60
2019-02-17T21:46:53.720Z,24.10
2019-02-17T21:52:05.510Z,23.80
2019-02-17T21:57:16.973Z,24.50
2019-02-17T21:59:54.077Z,24.50
2019-02-17T22:02:31.955Z,24.60
2019-02-17T22:05:09.193Z,24.70
2019-02-17T22:07:46.080Z,24.70
2019-02-17T22:10:23.160Z,24.80
2019-02-17T22:13:00.436Z,24.90
2019-02-17T22:15:38.018Z,24.80
2019-02-17T22:18:15.262Z,25.30
2019-02-17T22:20:53.557Z,24.90
2019-02-17T22:23:31.000Z,26.80
2019-02-17T22:26:08.352Z,25.00
2019-02-17T22:28:45.376Z,25.30
2019-02-17T22:31:22.970Z,25.10
2019-02-17T22:34:00.175Z,25.00
2019-02-17T22:39:14.599Z,25.20
2019-02-17T22:41:52.541Z,25.70
2019-02-17T22:49:38.396Z,25.60
2019-02-17T22:52:15.349Z,25.60
2019-02-17T22:54:52.477Z,25.60
2019-02-17T22:57:29.425Z,25.80
2019-02-17T23:00:06.350Z,26.00
2019-02-17T23:02:43.354Z,25.90
2019-02-17T23:05:20.442Z,26.00
2019-02-17T23:07:57.422Z,26.30
2019-02-17T23:10:34.742Z,28.60
2019-02-17T23:13:11.935Z,26.20
2019-02-17T23:15:48.886Z,26.20
2019-02-17T23:18:25.872Z,26.30
2019-02-17T23:21:03.036Z,26.30
2019-02-17T23:23:39.914Z,26.90
2019-02-17T23:26:16.985Z,26.70
2019-02-17T23:28:53.927Z,26.70
2019-02-17T23:31:30.979Z,26.90
2019-02-17T23:34:07.985Z,26.90
2019-02-17T23:36:45.101Z,27.00
2019-02-17T23:39:23.202Z,27.00
2019-02-17T23:47:09.367Z,27.10
2019-02-17T23:49:46.312Z,27.50
2019-02-17T23:52:23.837Z,27.60
2019-02-17T23:55:00.813Z,27.60
2019-02-17T23:57:37.814Z,27.70
